Time;durP1;ratioP1;P1;durP2;ratioP2;P2;SDS_P1;SDS_P2;PMS_P1;PMS_P2;Temp;Humidity;BMP_temperature;BMP_pressure;BME280_temperature;BME280_humidity;BME280_pressure;Samples;Min_cycle;Max_cycle;Signal;HPM_P1;HPM_P2
2024/03/24 00:00:29;;;;;;;0.30;0.30;;;4.10;99.90;;;;;;5080571;28;20456;-81
2024/03/24 00:02:57;;;;;;;0.40;0.30;;;4.00;99.90;;;;;;5080349;28;20475;-80
2024/03/24 00:05:23;;;;;;;0.30;0.30;;;4.10;99.90;;;;;;5080373;28;20414;-80
2024/03/24 00:07:50;;;;;;;0.30;0.30;;;4.30;99.90;;;;;;5080426;28;20468;-79
2024/03/24 00:10:16;;;;;;;0.40;0.30;;;4.00;99.90;;;;;;5080459;28;20466;-80
2024/03/24 00:12:43;;;;;;;0.40;0.40;;;4.10;99.90;;;;;;5080289;28;20469;-80
2024/03/24 00:15:09;;;;;;;0.97;0.40;;;4.10;99.90;;;;;;5080077;28;20233;-80
2024/03/24 00:17:36;;;;;;;1.23;1.23;;;4.00;99.90;;;;;;5080234;28;20427;-80
2024/03/24 00:20:05;;;;;;;0.30;0.30;;;4.00;99.90;;;;;;5080138;28;20418;-80
2024/03/24 00:22:31;;;;;;;0.30;0.30;;;4.00;99.90;;;;;;5080097;28;20468;-80
2024/03/24 00:24:58;;;;;;;0.63;0.50;;;3.90;99.90;;;;;;5080167;28;20465;-81
2024/03/24 00:27:24;;;;;;;0.30;0.30;;;3.80;99.90;;;;;;5080108;28;20438;-80
2024/03/24 00:29:50;;;;;;;0.40;0.40;;;5.20;99.90;;;;;;5079976;28;20442;-80
2024/03/24 00:32:17;;;;;;;0.40;0.40;;;3.90;99.90;;;;;;5079797;28;20430;-81
2024/03/24 00:34:46;;;;;;;1.80;0.40;;;3.90;99.90;;;;;;5080087;28;20172;-84
2024/03/24 00:37:14;;;;;;;0.30;0.30;;;3.90;99.90;;;;;;5079877;28;20447;-81
2024/03/24 00:39:40;;;;;;;0.40;0.30;;;3.80;99.90;;;;;;5079719;28;20534;-82
2024/03/24 00:42:07;;;;;;;0.40;0.33;;;3.90;99.90;;;;;;5079729;28;20468;-81
2024/03/24 00:44:33;;;;;;;0.70;0.53;;;3.80;99.90;;;;;;5079566;28;20172;-81
2024/03/24 00:47:00;;;;;;;0.40;0.40;;;3.80;99.90;;;;;;5079553;28;20442;-80
2024/03/24 00:49:25;;;;;;;0.40;0.40;;;3.70;99.90;;;;;;5079610;28;20203;-80
2024/03/24 00:51:52;;;;;;;0.40;0.30;;;3.70;99.90;;;;;;5079765;28;20451;-79
2024/03/24 00:54:20;;;;;;;0.40;0.40;;;3.60;99.90;;;;;;5079716;28;20218;-81
2024/03/24 00:56:46;;;;;;;0.40;0.30;;;3.60;99.90;;;;;;5079540;28;20422;-81
2024/03/24 00:59:13;;;;;;;0.40;0.40;;;3.50;99.90;;;;;;5079352;28;20450;-80
2024/03/24 01:01:40;;;;;;;0.30;0.30;;;3.50;99.90;;;;;;5079176;28;20429;-81
2024/03/24 01:04:06;;;;;;;0.30;0.30;;;3.50;99.90;;;;;;5079412;28;20433;-80
2024/03/24 01:06:33;;;;;;;0.40;0.40;;;3.80;99.90;;;;;;5079228;28;20434;-81
2024/03/24 01:08:59;;;;;;;0.67;0.67;;;3.60;99.90;;;;;;5079260;28;20229;-81
2024/03/24 01:11:27;;;;;;;0.30;0.30;;;3.60;99.90;;;;;;5079212;28;20498;-81
2024/03/24 01:13:53;;;;;;;0.67;0.30;;;3.60;99.90;;;;;;5079287;28;20202;-80
2024/03/24 01:16:20;;;;;;;0.50;0.30;;;3.60;99.90;;;;;;5078871;28;20457;-81
2024/03/24 01:18:46;;;;;;;0.40;0.40;;;3.70;99.90;;;;;;5079146;28;20234;-79
2024/03/24 01:21:13;;;;;;;0.40;0.30;;;3.80;99.90;;;;;;5079151;28;20422;-80
2024/03/24 01:23:39;;;;;;;0.33;0.30;;;3.90;99.90;;;;;;5078907;28;20203;-80
2024/03/24 01:26:06;;;;;;;0.40;0.40;;;3.90;99.90;;;;;;5079042;28;20425;-80
2024/03/24 01:28:33;;;;;;;0.30;0.30;;;4.00;99.90;;;;;;5078965;28;20429;-80
2024/03/24 01:31:00;;;;;;;0.30;0.30;;;4.10;99.90;;;;;;5079057;28;20414;-80
2024/03/24 01:33:26;;;;;;;0.30;0.30;;;4.10;99.90;;;;;;5078883;28;20437;-80
2024/03/24 01:35:53;;;;;;;0.90;0.43;;;4.20;99.90;;;;;;5079003;28;20430;-80
2024/03/24 01:38:19;;;;;;;0.37;0.33;;;4.20;99.90;;;;;;5077569;28;20454;-81
2024/03/24 01:40:49;;;;;;;0.37;0.30;;;4.10;99.90;;;;;;5078874;28;20437;-83
2024/03/24 01:43:17;;;;;;;0.30;0.30;;;4.10;99.90;;;;;;5078724;28;20291;-83
2024/03/24 01:45:47;;;;;;;0.90;0.40;;;4.10;99.90;;;;;;5078828;28;20489;-81
2024/03/24 01:48:14;;;;;;;0.40;0.30;;;4.10;99.90;;;;;;5078847;28;20429;-81
2024/03/24 01:50:41;;;;;;;0.30;0.30;;;4.00;99.90;;;;;;5078765;28;20442;-81
2024/03/24 01:53:12;;;;;;;1.90;0.43;;;4.00;99.90;;;;;;5078674;28;20442;-81
2024/03/24 01:55:39;;;;;;;0.40;0.40;;;4.00;99.90;;;;;;5078662;28;20450;-81
2024/03/24 01:58:05;;;;;;;0.40;0.30;;;4.10;99.90;;;;;;5078840;28;20505;-82
2024/03/24 02:00:34;;;;;;;0.40;0.40;;;4.10;99.90;;;;;;5078527;28;20468;-81
2024/03/24 02:03:02;;;;;;;0.30;0.30;;;4.10;99.90;;;;;;5078671;28;20445;-81
2024/03/24 02:05:30;;;;;;;0.37;0.37;;;4.10;99.90;;;;;;5077787;28;20449;-81
2024/03/24 02:07:56;;;;;;;0.40;0.30;;;3.80;99.90;;;;;;5078580;28;20438;-81
2024/03/24 02:10:24;;;;;;;0.40;0.40;;;4.10;99.90;;;;;;5078550;28;20444;-81
2024/03/24 02:12:51;;;;;;;0.30;0.23;;;4.40;99.90;;;;;;5078423;28;20442;-81
2024/03/24 02:15:18;;;;;;;0.40;0.40;;;4.00;99.90;;;;;;5081566;28;20462;-81
2024/03/24 02:17:45;;;;;;;0.40;0.30;;;3.90;99.90;;;;;;5082401;28;20459;-82
2024/03/24 02:20:14;;;;;;;0.40;0.40;;;3.90;99.90;;;;;;5082322;28;20430;-81
2024/03/24 02:22:42;;;;;;;0.30;0.30;;;4.00;99.90;;;;;;5082359;28;20435;-80
2024/03/24 02:25:10;;;;;;;0.30;0.30;;;4.00;99.90;;;;;;5082246;28;20426;-80
2024/03/24 02:27:36;;;;;;;0.30;0.20;;;3.90;99.90;;;;;;5082199;28;20496;-81
2024/03/24 02:30:04;;;;;;;0.40;0.40;;;3.90;99.90;;;;;;5082197;28;20453;-80
2024/03/24 02:32:30;;;;;;;0.40;0.40;;;3.90;99.90;;;;;;5082131;28;20422;-81
2024/03/24 02:34:58;;;;;;;0.90;0.43;;;3.90;99.90;;;;;;5081999;28;20440;-81
2024/03/24 02:37:24;;;;;;;0.30;0.30;;;4.30;99.90;;;;;;5081996;28;20493;-81
2024/03/24 02:39:52;;;;;;;0.60;0.40;;;3.80;99.90;;;;;;5081863;28;20506;-81
2024/03/24 02:42:18;;;;;;;0.40;0.30;;;3.80;99.90;;;;;;5082004;28;20468;-81
2024/03/24 02:44:45;;;;;;;0.40;0.40;;;3.70;99.90;;;;;;5081886;28;20426;-80
2024/03/24 02:47:11;;;;;;;0.40;0.30;;;3.70;99.90;;;;;;5081938;28;20422;-80
2024/03/24 02:49:38;;;;;;;0.40;0.40;;;3.80;99.90;;;;;;5081784;28;20469;-80
2024/03/24 02:52:05;;;;;;;0.30;0.30;;;4.20;99.90;;;;;;5081920;28;20426;-80
2024/03/24 02:54:32;;;;;;;0.40;0.40;;;3.70;99.90;;;;;;5081757;28;20446;-81
2024/03/24 02:57:00;;;;;;;0.47;0.47;;;3.70;99.90;;;;;;5081671;28;20441;-82
2024/03/24 02:59:26;;;;;;;0.50;0.50;;;3.80;99.90;;;;;;5081609;28;20458;-81
2024/03/24 03:01:53;;;;;;;0.50;0.50;;;3.80;99.90;;;;;;5081511;28;20493;-81
2024/03/24 03:04:20;;;;;;;0.53;0.50;;;3.80;99.90;;;;;;5081701;28;20403;-79
2024/03/24 03:06:46;;;;;;;0.30;0.30;;;3.80;99.90;;;;;;5081664;28;20418;-79
2024/03/24 03:09:16;;;;;;;0.40;0.37;;;3.80;99.90;;;;;;5081523;28;20459;-79
2024/03/24 03:11:42;;;;;;;0.50;0.50;;;3.80;99.90;;;;;;5081504;28;20231;-79
2024/03/24 03:14:10;;;;;;;0.40;0.40;;;3.70;99.90;;;;;;5081427;28;20411;-80
2024/03/24 03:16:38;;;;;;;0.43;0.43;;;3.90;99.90;;;;;;5081211;28;20517;-80
2024/03/24 03:19:05;;;;;;;0.40;0.30;;;3.60;99.90;;;;;;5081349;28;20446;-79
2024/03/24 03:21:31;;;;;;;0.50;0.30;;;3.50;99.90;;;;;;5081466;28;20437;-80
2024/03/24 03:23:58;;;;;;;0.30;0.30;;;3.50;99.90;;;;;;5081168;28;20493;-78
2024/03/24 03:26:24;;;;;;;0.30;0.30;;;3.50;99.90;;;;;;5080018;28;20180;-81
2024/03/24 03:28:51;;;;;;;0.30;0.30;;;3.50;99.90;;;;;;5081229;28;20473;-78
2024/03/24 03:31:18;;;;;;;0.30;0.30;;;3.70;99.90;;;;;;5080957;28;20183;-84
2024/03/24 03:33:45;;;;;;;0.30;0.30;;;3.60;99.90;;;;;;5081131;28;20464;-80
2024/03/24 03:36:11;;;;;;;0.40;0.40;;;3.60;99.90;;;;;;5081069;28;20411;-80
2024/03/24 03:38:37;;;;;;;0.30;0.30;;;3.70;99.90;;;;;;5080846;28;20453;-80
2024/03/24 03:41:05;;;;;;;0.30;0.30;;;3.80;99.90;;;;;;5080875;28;20183;-80
2024/03/24 03:43:32;;;;;;;0.40;0.30;;;3.80;99.90;;;;;;5080866;28;20488;-80
2024/03/24 03:45:58;;;;;;;0.40;0.40;;;3.80;99.90;;;;;;5080758;28;20432;-80
2024/03/24 03:48:26;;;;;;;0.30;0.30;;;3.90;99.90;;;;;;5080815;28;20426;-81
2024/03/24 03:50:52;;;;;;;0.30;0.20;;;4.30;99.90;;;;;;5080728;28;20180;-80
2024/03/24 03:53:22;;;;;;;0.30;0.30;;;3.80;99.90;;;;;;5080811;28;20449;-80
2024/03/24 03:55:50;;;;;;;0.40;0.40;;;3.80;99.90;;;;;;5080781;28;20183;-80
2024/03/24 03:58:18;;;;;;;0.30;0.30;;;3.90;99.90;;;;;;5080559;28;20430;-80
2024/03/24 04:00:44;;;;;;;0.50;0.47;;;3.80;99.90;;;;;;5080572;28;20414;-79
2024/03/24 04:03:11;;;;;;;0.50;0.40;;;3.80;99.90;;;;;;5080435;28;20457;-79
2024/03/24 04:05:39;;;;;;;0.30;0.30;;;3.80;99.90;;;;;;5080481;28;20422;-79
2024/03/24 04:08:07;;;;;;;11.43;0.53;;;3.80;99.90;;;;;;5080469;28;20430;-80
2024/03/24 04:10:33;;;;;;;0.30;0.30;;;3.70;99.90;;;;;;5080359;28;20418;-80
2024/03/24 04:13:00;;;;;;;0.30;0.30;;;3.70;99.90;;;;;;5080401;28;20425;-80
2024/03/24 04:15:25;;;;;;;0.30;0.30;;;3.70;99.90;;;;;;5080249;28;20235;-79
2024/03/24 04:17:52;;;;;;;0.40;0.40;;;3.70;99.90;;;;;;5080164;28;20434;-79
2024/03/24 04:20:18;;;;;;;0.30;0.30;;;3.70;99.90;;;;;;5080313;28;20186;-80
2024/03/24 04:22:47;;;;;;;0.40;0.30;;;3.80;99.90;;;;;;5080203;28;20457;-79
2024/03/24 04:25:13;;;;;;;0.40;0.30;;;3.90;99.90;;;;;;5080066;28;20174;-80
2024/03/24 04:27:40;;;;;;;0.53;0.43;;;4.00;99.90;;;;;;5079987;28;20406;-79
2024/03/24 04:30:07;;;;;;;0.30;0.30;;;4.00;99.90;;;;;;5080014;28;20414;-79
2024/03/24 04:32:34;;;;;;;0.30;0.30;;;3.90;99.90;;;;;;5080060;28;20492;-79
2024/03/24 04:35:00;;;;;;;0.83;0.70;;;3.90;99.90;;;;;;5079898;28;20465;-80
2024/03/24 04:37:28;;;;;;;0.50;0.33;;;3.90;99.90;;;;;;5079401;28;20438;-79
2024/03/24 04:39:56;;;;;;;0.30;0.20;;;3.90;99.90;;;;;;5079864;28;20458;-80
2024/03/24 04:42:23;;;;;;;0.30;0.30;;;3.90;99.90;;;;;;5079669;28;20426;-78
2024/03/24 04:44:48;;;;;;;0.40;0.40;;;3.90;99.90;;;;;;5079736;28;20429;-79
2024/03/24 04:47:16;;;;;;;0.30;0.27;;;3.80;99.90;;;;;;5079718;28;20422;-80
2024/03/24 04:49:42;;;;;;;0.40;0.30;;;3.80;99.90;;;;;;5079596;28;20195;-80
2024/03/24 04:52:08;;;;;;;0.37;0.37;;;3.90;99.90;;;;;;5079619;28;20438;-80
2024/03/24 04:54:35;;;;;;;0.90;0.40;;;3.70;99.90;;;;;;5079488;28;20440;-79
2024/03/24 04:57:02;;;;;;;0.50;0.40;;;3.70;99.90;;;;;;5079571;28;20187;-80
2024/03/24 04:59:29;;;;;;;0.40;0.40;;;3.60;99.90;;;;;;5079538;28;20437;-79
2024/03/24 05:01:55;;;;;;;0.30;0.30;;;3.60;99.90;;;;;;5079544;28;20410;-80
2024/03/24 05:04:22;;;;;;;0.40;0.30;;;3.60;99.90;;;;;;5079389;28;20458;-78
2024/03/24 05:06:48;;;;;;;0.40;0.40;;;3.60;99.90;;;;;;5079418;28;20238;-80
2024/03/24 05:09:16;;;;;;;0.43;0.40;;;3.60;99.90;;;;;;5079342;28;20433;-80
2024/03/24 05:11:41;;;;;;;0.40;0.40;;;3.60;99.90;;;;;;5079350;28;20167;-79
2024/03/24 05:14:10;;;;;;;0.30;0.30;;;3.70;99.90;;;;;;5079227;28;20479;-79
2024/03/24 05:16:37;;;;;;;0.30;0.30;;;3.70;99.90;;;;;;5079038;28;20380;-80
2024/03/24 05:19:06;;;;;;;0.30;0.30;;;3.70;99.90;;;;;;5079131;28;20434;-80
2024/03/24 05:21:32;;;;;;;0.40;0.40;;;3.70;99.90;;;;;;5079211;28;20437;-79
2024/03/24 05:23:59;;;;;;;0.30;0.30;;;3.70;99.90;;;;;;5078960;28;20454;-80
2024/03/24 05:26:25;;;;;;;0.90;0.30;;;3.60;99.90;;;;;;5078769;28;20183;-84
2024/03/24 05:28:51;;;;;;;0.40;0.40;;;3.60;99.90;;;;;;5078993;28;20480;-79
2024/03/24 05:31:19;;;;;;;0.40;0.30;;;3.50;99.90;;;;;;5079082;28;20194;-80
2024/03/24 05:33:47;;;;;;;0.40;0.33;;;3.50;99.90;;;;;;5078999;28;20418;-80
2024/03/24 05:36:13;;;;;;;0.57;0.57;;;3.50;99.90;;;;;;5078993;28;20457;-80
2024/03/24 05:38:40;;;;;;;1.57;0.33;;;3.40;99.90;;;;;;5078976;28;20430;-80
2024/03/24 05:41:07;;;;;;;2.20;0.30;;;3.30;99.90;;;;;;5078902;28;20501;-79
2024/03/24 05:43:33;;;;;;;0.30;0.27;;;3.30;99.90;;;;;;5078332;28;20457;-79
2024/03/24 05:45:59;;;;;;;0.40;0.40;;;3.30;99.90;;;;;;5078915;28;20421;-79
2024/03/24 05:48:27;;;;;;;0.30;0.30;;;3.40;99.90;;;;;;5079284;28;20462;-80
2024/03/24 05:50:57;;;;;;;0.30;0.30;;;3.40;99.90;;;;;;5083081;28;20179;-79
2024/03/24 05:53:24;;;;;;;0.30;0.30;;;3.40;99.90;;;;;;5082958;28;20430;-79
2024/03/24 05:55:50;;;;;;;1.03;0.47;;;3.50;99.90;;;;;;5083017;28;20406;-79
2024/03/24 05:58:17;;;;;;;2.67;0.57;;;3.60;99.90;;;;;;5082920;28;20445;-79
2024/03/24 06:00:43;;;;;;;0.30;0.30;;;3.70;99.90;;;;;;5082936;28;20421;-79
2024/03/24 06:03:10;;;;;;;0.50;0.40;;;3.70;99.90;;;;;;5082887;28;20442;-79
2024/03/24 06:05:37;;;;;;;0.40;0.40;;;3.50;99.90;;;;;;5082747;28;20187;-79
2024/03/24 06:08:05;;;;;;;1.97;0.37;;;3.50;99.90;;;;;;5082672;28;20453;-80
2024/03/24 06:10:31;;;;;;;0.33;0.33;;;3.50;99.90;;;;;;5082736;28;20446;-79
2024/03/24 06:12:58;;;;;;;0.30;0.20;;;3.60;99.90;;;;;;5082642;28;20430;-79
2024/03/24 06:15:24;;;;;;;0.60;0.40;;;3.80;99.90;;;;;;5082401;28;20453;-80
2024/03/24 06:17:50;;;;;;;0.70;0.30;;;3.90;99.90;;;;;;5082540;28;20449;-79
2024/03/24 06:20:16;;;;;;;0.30;0.30;;;4.00;99.90;;;;;;5081271;28;20239;-83
2024/03/24 06:22:44;;;;;;;0.57;0.33;;;4.10;99.90;;;;;;5082328;28;20446;-79
2024/03/24 06:25:10;;;;;;;0.30;0.30;;;4.20;99.90;;;;;;5082467;28;20248;-80
2024/03/24 06:27:37;;;;;;;0.40;0.30;;;4.40;99.90;;;;;;5082204;28;20433;-79
2024/03/24 06:30:03;;;;;;;0.40;0.33;;;4.40;99.90;;;;;;5082281;28;20243;-79
2024/03/24 06:32:31;;;;;;;0.87;0.50;;;4.40;99.90;;;;;;5082353;28;20413;-80
2024/03/24 06:34:57;;;;;;;4.17;0.50;;;4.50;99.90;;;;;;5082193;28;20452;-80
2024/03/24 06:37:23;;;;;;;0.30;0.30;;;4.40;99.90;;;;;;5082294;28;20410;-79
2024/03/24 06:39:51;;;;;;;0.50;0.40;;;4.30;99.90;;;;;;5082103;28;20184;-79
2024/03/24 06:42:18;;;;;;;1.33;0.47;;;4.40;99.90;;;;;;5082153;28;20426;-79
2024/03/24 06:44:46;;;;;;;0.40;0.30;;;4.40;99.90;;;;;;5081917;28;20453;-79
2024/03/24 06:47:13;;;;;;;0.50;0.37;;;4.50;99.90;;;;;;5081951;28;20489;-80
2024/03/24 06:49:38;;;;;;;0.30;0.30;;;4.70;99.90;;;;;;5081946;28;20500;-79
2024/03/24 06:52:05;;;;;;;0.30;0.30;;;4.80;99.90;;;;;;5081958;28;20437;-79
2024/03/24 06:54:31;;;;;;;0.30;0.30;;;4.90;99.90;;;;;;5081947;28;20175;-80
2024/03/24 06:56:59;;;;;;;2.80;0.57;;;5.00;99.90;;;;;;5081651;28;20450;-79
2024/03/24 06:59:25;;;;;;;0.40;0.30;;;4.90;99.90;;;;;;5081478;28;20259;-79
2024/03/24 07:01:52;;;;;;;0.30;0.30;;;5.00;99.90;;;;;;5081679;28;20430;-80
2024/03/24 07:04:18;;;;;;;0.40;0.40;;;5.10;99.90;;;;;;5081657;28;20222;-79
2024/03/24 07:06:44;;;;;;;0.30;0.30;;;5.00;99.90;;;;;;5081617;28;20422;-79
2024/03/24 07:09:11;;;;;;;0.60;0.30;;;5.20;99.90;;;;;;5081601;28;20191;-79
2024/03/24 07:11:37;;;;;;;0.40;0.40;;;5.20;99.90;;;;;;5081549;28;20406;-79
2024/03/24 07:14:05;;;;;;;1.63;0.30;;;5.30;99.90;;;;;;5081437;28;20426;-79
2024/03/24 07:16:31;;;;;;;0.37;0.30;;;5.40;99.90;;;;;;5081305;28;20208;-78
2024/03/24 07:18:57;;;;;;;0.80;0.40;;;5.60;99.90;;;;;;5081426;28;20441;-78
2024/03/24 07:21:23;;;;;;;0.40;0.40;;;5.70;99.90;;;;;;5081447;28;20210;-80
2024/03/24 07:23:51;;;;;;;0.40;0.33;;;5.90;99.90;;;;;;5081355;28;20461;-78
2024/03/24 07:26:17;;;;;;;0.50;0.50;;;6.00;99.90;;;;;;5081318;28;20171;-78
2024/03/24 07:28:43;;;;;;;0.40;0.30;;;6.00;99.90;;;;;;5081163;28;20561;-79
2024/03/24 07:31:10;;;;;;;0.40;0.40;;;6.20;99.90;;;;;;5081147;28;20191;-80
2024/03/24 07:33:37;;;;;;;0.63;0.63;;;6.20;99.90;;;;;;5081021;28;20485;-84
2024/03/24 07:36:04;;;;;;;0.50;0.50;;;6.30;99.90;;;;;;5080779;28;20434;-80
2024/03/24 07:38:32;;;;;;;0.60;0.47;;;6.60;99.90;;;;;;5080986;28;20475;-80
2024/03/24 07:40:58;;;;;;;0.50;0.50;;;6.60;99.90;;;;;;5081036;28;20446;-80
2024/03/24 07:43:24;;;;;;;0.40;0.40;;;6.60;99.90;;;;;;5080916;28;20525;-79
2024/03/24 07:45:50;;;;;;;0.50;0.50;;;6.40;99.90;;;;;;5080829;28;20243;-79
2024/03/24 07:48:18;;;;;;;1.60;0.30;;;6.20;99.90;;;;;;5080613;28;20442;-78
2024/03/24 07:50:45;;;;;;;0.50;0.50;;;5.90;99.90;;;;;;5080812;28;20182;-78
2024/03/24 07:53:12;;;;;;;0.43;0.43;;;5.80;99.90;;;;;;5080747;28;20444;-78
2024/03/24 07:55:41;;;;;;;2.70;0.50;;;5.80;99.90;;;;;;5080738;28;20422;-78
2024/03/24 07:58:08;;;;;;;0.73;0.40;;;5.70;99.90;;;;;;5080661;28;20433;-79
2024/03/24 08:00:34;;;;;;;0.60;0.60;;;5.70;99.90;;;;;;5080568;28;20504;-79
2024/03/24 08:03:02;;;;;;;0.40;0.40;;;5.70;99.90;;;;;;5080523;28;20414;-77
2024/03/24 08:05:29;;;;;;;0.63;0.30;;;5.70;99.90;;;;;;5080567;28;20508;-79
2024/03/24 08:07:58;;;;;;;0.50;0.30;;;5.80;99.90;;;;;;5065178;28;20454;-80
2024/03/24 08:10:57;;;;;;;0.50;0.47;;;5.90;99.90;;;;;;5059976;28;20434;-80
2024/03/24 08:42:58;;;;;;;0.50;0.50;;;8.40;99.90;;;;;;5053081;28;20465;-81
2024/03/24 08:45:24;;;;;;;0.40;0.30;;;8.90;99.90;;;;;;5056929;28;20931;-81
2024/03/24 08:47:51;;;;;;;0.40;0.33;;;9.10;99.90;;;;;;5056800;28;20468;-81
2024/03/24 08:50:17;;;;;;;4.73;0.77;;;9.30;99.90;;;;;;5057043;28;20199;-80
2024/03/24 08:52:43;;;;;;;0.60;0.50;;;9.60;99.90;;;;;;5056921;28;20445;-81
2024/03/24 08:55:09;;;;;;;0.93;0.57;;;9.80;99.90;;;;;;5058159;28;20445;-81
2024/03/24 08:57:39;;;;;;;2.43;0.60;;;10.10;99.90;;;;;;5057616;28;20442;-82
2024/03/24 09:00:09;;;;;;;0.60;0.60;;;10.40;99.90;;;;;;5057798;28;20238;-82
2024/03/24 09:02:35;;;;;;;0.97;0.40;;;11.00;99.90;;;;;;5057445;28;20446;-81
2024/03/24 09:05:01;;;;;;;0.40;0.30;;;11.40;99.90;;;;;;5056542;28;20496;-80
2024/03/24 09:07:28;;;;;;;0.50;0.40;;;11.60;99.90;;;;;;5057658;28;20450;-81
2024/03/24 09:09:54;;;;;;;0.37;0.30;;;11.70;99.90;;;;;;5057205;28;20207;-82
2024/03/24 09:12:20;;;;;;;0.70;0.40;;;11.50;99.90;;;;;;5056666;28;20445;-81
2024/03/24 09:14:46;;;;;;;0.63;0.60;;;11.20;99.90;;;;;;5056731;28;20664;-80
2024/03/24 09:17:14;;;;;;;1.00;0.80;;;11.20;99.90;;;;;;5057260;28;20452;-80
2024/03/24 09:19:40;;;;;;;0.40;0.40;;;11.10;99.90;;;;;;5056903;28;20298;-80
2024/03/24 09:22:07;;;;;;;1.17;1.03;;;11.40;99.90;;;;;;5056997;28;20882;-81
2024/03/24 09:24:32;;;;;;;0.73;0.40;;;11.60;99.90;;;;;;5057319;28;20227;-81
2024/03/24 09:27:00;;;;;;;0.70;0.50;;;11.80;99.90;;;;;;5056195;28;20974;-80
2024/03/24 09:29:26;;;;;;;0.50;0.50;;;11.80;99.90;;;;;;5056780;28;20223;-81
2024/03/24 09:31:52;;;;;;;0.53;0.50;;;11.50;99.90;;;;;;5056822;28;20556;-80
2024/03/24 09:34:20;;;;;;;0.70;0.40;;;11.10;99.90;;;;;;5056810;28;20266;-80
2024/03/24 09:36:46;;;;;;;1.23;0.60;;;10.60;99.90;;;;;;5057255;28;20540;-81
2024/03/24 09:39:13;;;;;;;0.63;0.63;;;10.30;99.90;;;;;;5056188;28;20838;-80
2024/03/24 09:41:43;;;;;;;1.03;0.50;;;9.80;99.90;;;;;;5055227;28;20477;-80
2024/03/24 09:44:10;;;;;;;0.80;0.63;;;9.50;99.90;;;;;;5055338;28;20854;-80
2024/03/24 09:46:39;;;;;;;0.60;0.60;;;9.30;99.90;;;;;;5056759;28;20456;-80
2024/03/24 09:49:08;;;;;;;2.10;0.50;;;9.00;99.90;;;;;;5058828;28;20470;-82
2024/03/24 09:51:38;;;;;;;4.60;0.67;;;9.00;99.90;;;;;;5055626;28;20452;-81
2024/03/24 09:54:05;;;;;;;0.43;0.40;;;9.00;99.90;;;;;;5055625;28;20422;-81
2024/03/24 09:56:33;;;;;;;2.00;0.50;;;9.30;99.90;;;;;;5055166;28;20548;-82
2024/03/24 09:59:04;;;;;;;0.63;0.50;;;10.40;99.90;;;;;;5056081;28;20971;-82
2024/03/24 10:01:30;;;;;;;1.30;0.63;;;10.90;99.90;;;;;;5057243;28;20434;-82
2024/03/24 10:03:57;;;;;;;1.70;0.47;;;11.10;99.90;;;;;;5062210;28;20474;-83
2024/03/24 10:06:24;;;;;;;0.67;0.40;;;10.80;99.90;;;;;;5058076;28;20418;-82
2024/03/24 10:08:53;;;;;;;0.60;0.40;;;10.30;99.90;;;;;;5057563;28;20468;-82
2024/03/24 10:11:27;;;;;;;0.40;0.40;;;10.00;99.90;;;;;;5057850;28;20445;-82
2024/03/24 10:13:54;;;;;;;1.07;0.60;;;9.40;99.90;;;;;;5058155;28;20518;-82
2024/03/24 10:16:20;;;;;;;6.73;0.90;;;9.10;99.90;;;;;;5057693;28;20453;-82
2024/03/24 10:18:48;;;;;;;0.50;0.40;;;8.80;99.90;;;;;;5057063;28;20474;-82
2024/03/24 10:21:15;;;;;;;0.77;0.70;;;8.60;99.90;;;;;;5056742;28;20574;-82
2024/03/24 10:23:41;;;;;;;0.50;0.40;;;8.50;99.90;;;;;;5056020;28;20509;-82
2024/03/24 10:26:09;;;;;;;2.23;0.50;;;8.40;99.90;;;;;;5056324;28;20434;-82
2024/03/24 10:28:35;;;;;;;0.83;0.63;;;8.30;99.90;;;;;;5056629;28;20461;-82
2024/03/24 10:31:05;;;;;;;0.60;0.60;;;8.30;99.90;;;;;;5056915;28;20465;-82
2024/03/24 10:33:33;;;;;;;0.60;0.50;;;8.50;99.90;;;;;;5056199;28;20649;-80
2024/03/24 10:35:59;;;;;;;0.50;0.40;;;8.50;99.90;;;;;;5059634;28;20441;-82
2024/03/24 10:38:26;;;;;;;0.50;0.30;;;8.80;99.90;;;;;;5060019;28;20523;-82
2024/03/24 10:40:55;;;;;;;0.40;0.30;;;8.90;99.90;;;;;;5059649;28;20465;-82
2024/03/24 10:43:24;;;;;;;2.00;0.40;;;9.20;99.90;;;;;;5060348;28;20432;-82
2024/03/24 10:45:51;;;;;;;0.67;0.50;;;9.40;99.90;;;;;;5063224;28;20453;-81
2024/03/24 10:48:24;;;;;;;0.40;0.40;;;9.30;99.90;;;;;;5060323;28;20485;-80
2024/03/24 10:50:53;;;;;;;0.60;0.60;;;9.30;99.90;;;;;;5060050;28;20422;-80
2024/03/24 10:53:22;;;;;;;1.37;0.40;;;9.40;99.90;;;;;;5060076;28;20446;-82
2024/03/24 10:55:51;;;;;;;1.90;0.73;;;9.20;99.90;;;;;;5059835;28;20445;-82
2024/03/24 10:58:20;;;;;;;1.53;0.60;;;9.30;99.90;;;;;;5059222;28;20469;-82
2024/03/24 11:00:47;;;;;;;0.60;0.60;;;9.20;99.90;;;;;;5059303;28;20453;-82
2024/03/24 11:03:15;;;;;;;0.50;0.40;;;9.30;99.90;;;;;;5060920;28;20476;-83
2024/03/24 11:05:44;;;;;;;0.50;0.50;;;9.40;99.90;;;;;;5060000;28;20481;-80
2024/03/24 11:08:13;;;;;;;0.60;0.50;;;9.40;99.90;;;;;;5058984;28;20465;-79
2024/03/24 11:10:41;;;;;;;0.90;0.50;;;9.40;99.90;;;;;;5059807;28;21010;-82
2024/03/24 11:13:09;;;;;;;1.00;0.70;;;9.40;99.90;;;;;;5060269;28;20477;-83
2024/03/24 11:15:35;;;;;;;1.17;1.07;;;9.50;99.90;;;;;;5062313;28;20438;-80
2024/03/24 11:18:17;;;;;;;0.50;0.50;;;9.40;99.90;;;;;;5068526;28;20470;-81
2024/03/24 11:20:42;;;;;;;0.60;0.50;;;9.30;99.90;;;;;;5069577;28;20432;-81
2024/03/24 11:23:16;;;;;;;2.57;1.00;;;9.20;99.90;;;;;;5070169;28;20454;-81
2024/03/24 11:25:42;;;;;;;0.90;0.50;;;9.00;99.90;;;;;;5069540;28;20229;-80
2024/03/24 11:28:09;;;;;;;0.60;0.60;;;8.90;99.90;;;;;;5065066;28;20525;-81
2024/03/24 11:30:35;;;;;;;0.80;0.70;;;8.80;99.90;;;;;;5061021;28;20639;-82
2024/03/24 11:33:02;;;;;;;0.57;0.53;;;8.70;99.90;;;;;;5060085;28;20476;-82
2024/03/24 11:35:30;;;;;;;0.40;0.40;;;8.70;99.90;;;;;;5059802;28;20465;-83
2024/03/24 11:37:59;;;;;;;2.80;0.53;;;8.70;99.90;;;;;;5059725;28;20477;-81
2024/03/24 11:40:25;;;;;;;0.80;0.50;;;8.70;99.90;;;;;;5059725;28;20442;-82
2024/03/24 11:42:53;;;;;;;1.00;0.60;;;8.80;99.90;;;;;;5059142;28;20484;-82
2024/03/24 11:45:29;;;;;;;1.30;0.63;;;8.90;99.90;;;;;;5059123;28;20486;-82
2024/03/24 11:48:31;;;;;;;2.20;0.77;;;8.80;99.90;;;;;;5059693;28;20453;-82
2024/03/24 11:51:01;;;;;;;0.40;0.40;;;8.80;99.90;;;;;;5065471;28;20425;-82
2024/03/24 11:53:31;;;;;;;0.50;0.33;;;8.80;99.90;;;;;;5060311;28;20450;-82
2024/03/24 11:55:59;;;;;;;0.67;0.67;;;8.60;99.90;;;;;;5059451;28;20434;-82
2024/03/24 11:58:26;;;;;;;0.60;0.60;;;8.60;99.90;;;;;;5059361;28;20516;-80
2024/03/24 12:00:52;;;;;;;0.60;0.57;;;8.40;99.90;;;;;;5059317;28;20441;-81
2024/03/24 12:03:19;;;;;;;0.60;0.60;;;8.40;99.90;;;;;;5058265;28;20807;-82
2024/03/24 12:05:45;;;;;;;0.60;0.60;;;8.20;99.90;;;;;;5057677;28;20219;-81
2024/03/24 12:08:13;;;;;;;0.40;0.40;;;8.30;99.90;;;;;;5056962;28;20497;-80
2024/03/24 12:10:40;;;;;;;4.00;0.43;;;8.10;99.90;;;;;;5057118;28;20529;-81
2024/03/24 12:13:08;;;;;;;0.30;0.30;;;8.10;99.90;;;;;;5058026;28;20477;-82
2024/03/24 12:15:33;;;;;;;0.50;0.40;;;8.20;99.90;;;;;;5056177;28;20199;-81
2024/03/24 12:18:07;;;;;;;0.80;0.70;;;8.30;99.90;;;;;;5056162;28;20469;-80
2024/03/24 12:20:34;;;;;;;0.50;0.40;;;8.20;99.90;;;;;;5056753;28;20206;-81
2024/03/24 12:23:00;;;;;;;1.23;0.60;;;8.40;99.90;;;;;;5056803;28;20450;-80
2024/03/24 12:25:28;;;;;;;0.53;0.50;;;8.40;99.90;;;;;;5060834;28;20481;-82
2024/03/24 12:27:55;;;;;;;0.93;0.60;;;8.40;99.90;;;;;;5059637;28;20501;-82
2024/03/24 12:30:22;;;;;;;0.40;0.40;;;8.30;99.90;;;;;;5059972;28;20454;-81
2024/03/24 12:32:49;;;;;;;1.00;0.77;;;8.50;99.90;;;;;;5057941;28;20454;-81
2024/03/24 12:35:16;;;;;;;0.50;0.50;;;8.90;99.90;;;;;;5058417;28;20474;-80
2024/03/24 12:37:43;;;;;;;0.80;0.50;;;9.10;99.90;;;;;;5056877;28;20448;-80
2024/03/24 12:40:15;;;;;;;0.50;0.50;;;9.20;99.90;;;;;;5057788;28;20448;-80
2024/03/24 12:42:43;;;;;;;0.77;0.77;;;9.30;99.90;;;;;;5057373;28;21009;-83
2024/03/24 12:45:09;;;;;;;0.60;0.53;;;9.10;99.90;;;;;;5056591;28;20481;-80
2024/03/24 12:47:36;;;;;;;1.77;0.47;;;9.10;99.90;;;;;;5056836;28;20466;-81
2024/03/24 12:50:03;;;;;;;1.03;0.63;;;9.10;99.90;;;;;;5057623;28;20442;-81
2024/03/24 12:52:30;;;;;;;2.37;0.50;;;9.20;99.90;;;;;;5057120;28;20445;-80
2024/03/24 12:54:56;;;;;;;0.77;0.50;;;9.20;99.90;;;;;;5056774;28;20448;-80
2024/03/24 12:57:22;;;;;;;1.60;0.60;;;9.20;99.90;;;;;;5057962;28;20449;-81
2024/03/24 12:59:55;;;;;;;0.60;0.50;;;8.90;99.90;;;;;;5057766;28;20468;-83
2024/03/24 13:02:25;;;;;;;0.43;0.43;;;8.60;99.90;;;;;;5056037;28;20481;-81
2024/03/24 13:04:51;;;;;;;0.70;0.37;;;8.20;99.90;;;;;;5054840;28;20811;-81
2024/03/24 13:07:19;;;;;;;0.60;0.50;;;8.00;99.90;;;;;;5055332;28;20448;-81
2024/03/24 13:09:46;;;;;;;0.40;0.40;;;7.90;99.90;;;;;;5056460;28;20281;-82
2024/03/24 13:12:12;;;;;;;0.77;0.60;;;7.90;99.90;;;;;;5055984;28;20521;-81
2024/03/24 13:14:39;;;;;;;0.50;0.50;;;8.00;99.90;;;;;;5055622;28;20442;-81
2024/03/24 13:17:15;;;;;;;1.90;1.00;;;7.70;99.90;;;;;;5055226;28;20525;-82
2024/03/24 13:19:47;;;;;;;4.53;0.70;;;7.60;99.90;;;;;;5056283;28;20469;-82
2024/03/24 13:35:48;;;;;;;1.00;0.53;;;6.70;99.90;;;;;;5034323;28;20525;-81
2024/03/24 13:39:09;;;;;;;0.53;0.50;;;6.80;99.90;;;;;;5055422;28;20512;-81